createdAt,value
2023-01-28T00:00:48.176Z,-0.68
2023-01-28T00:02:51.292Z,-0.71
2023-01-28T00:04:53.718Z,-0.55
2023-01-28T00:06:55.648Z,-0.61
2023-01-28T00:08:57.657Z,-0.63
2023-01-28T00:11:06.925Z,-0.69
2023-01-28T00:13:15.726Z,-0.73
2023-01-28T00:15:32.858Z,-0.56
2023-01-28T00:17:34.802Z,-0.68
2023-01-28T00:20:11.027Z,-0.59
2023-01-28T00:22:34.358Z,-0.61
2023-01-28T00:24:41.287Z,-0.56
2023-01-28T00:26:51.698Z,-0.62
2023-01-28T00:29:03.125Z,-0.62
2023-01-28T00:31:21.224Z,-0.66
2023-01-28T00:33:26.210Z,-0.57
2023-01-28T00:35:30.333Z,-0.56
2023-01-28T00:37:38.380Z,-0.54
2023-01-28T00:39:40.395Z,-0.59
2023-01-28T00:41:42.382Z,-0.57
2023-01-28T00:43:45.646Z,-0.61
2023-01-28T00:45:51.733Z,-0.60
2023-01-28T00:47:54.686Z,-0.53
2023-01-28T00:49:56.844Z,-0.60
2023-01-28T00:51:58.766Z,-0.57
2023-01-28T00:54:02.943Z,-0.58
2023-01-28T00:56:14.033Z,-0.55
2023-01-28T00:58:32.817Z,-0.59
2023-01-28T01:00:42.852Z,-0.53
2023-01-28T01:02:54.063Z,-0.54
2023-01-28T01:04:59.747Z,-0.55
2023-01-28T01:07:01.626Z,-0.54
2023-01-28T01:09:08.601Z,-0.55
2023-01-28T01:11:12.401Z,-0.46
2023-01-28T01:13:16.312Z,-0.45
2023-01-28T01:15:22.538Z,-0.53
2023-01-28T01:17:24.795Z,-0.55
2023-01-28T01:19:30.343Z,-0.56
2023-01-28T01:21:33.373Z,-0.53
2023-01-28T01:23:35.355Z,-0.54
2023-01-28T01:25:40.103Z,-0.55
2023-01-28T01:27:44.168Z,-0.58
2023-01-28T01:29:47.125Z,-0.56
2023-01-28T01:31:52.124Z,-0.54
2023-01-28T01:33:58.031Z,-0.56
2023-01-28T01:36:06.556Z,-0.55
2023-01-28T01:38:08.944Z,-0.54
2023-01-28T01:40:17.931Z,-0.52
2023-01-28T01:42:21.239Z,-0.54
2023-01-28T01:45:34.289Z,-0.48
2023-01-28T01:47:48.615Z,-0.50
2023-01-28T01:49:56.514Z,-0.54
2023-01-28T01:52:09.295Z,-0.49
2023-01-28T01:54:20.823Z,-0.49
2023-01-28T01:56:53.821Z,-0.46
2023-01-28T01:58:58.047Z,-0.46
2023-01-28T02:01:00.962Z,-0.42
2023-01-28T02:03:11.372Z,-0.45
2023-01-28T02:05:18.193Z,-0.47
2023-01-28T02:07:23.326Z,-0.42
2023-01-28T02:09:38.646Z,-0.46
2023-01-28T02:11:48.798Z,-0.50
2023-01-28T02:13:57.277Z,-0.42
2023-01-28T02:16:16.141Z,-0.44
2023-01-28T02:18:28.401Z,-0.45
2023-01-28T02:21:08.506Z,-0.43
2023-01-28T02:23:39.765Z,-0.49
2023-01-28T02:26:10.805Z,-0.48
2023-01-28T02:28:40.091Z,-0.47
2023-01-28T02:31:17.944Z,-0.46
2023-01-28T02:33:40.712Z,-0.49
2023-01-28T02:36:06.438Z,-0.45
2023-01-28T02:38:09.900Z,-0.46
2023-01-28T02:40:25.573Z,-0.45
2023-01-28T02:42:37.369Z,-0.42
2023-01-28T02:44:40.062Z,-0.40
2023-01-28T02:47:06.043Z,-0.43
2023-01-28T02:49:26.797Z,-0.42
2023-01-28T02:51:48.366Z,-0.46
2023-01-28T02:54:17.353Z,-0.51
2023-01-28T02:56:46.254Z,-0.47
2023-01-28T02:59:34.244Z,-0.49
2023-01-28T03:01:43.061Z,-0.47
2023-01-28T03:04:02.081Z,-0.51
2023-01-28T03:06:10.766Z,-0.53
2023-01-28T03:08:38.283Z,-0.53
2023-01-28T03:10:40.336Z,-0.51
2023-01-28T03:13:10.890Z,-0.50
2023-01-28T03:15:40.962Z,-0.52
2023-01-28T03:18:10.523Z,-0.50
2023-01-28T03:20:32.057Z,-0.52
2023-01-28T03:22:58.922Z,-0.53
2023-01-28T03:25:21.273Z,-0.53
2023-01-28T03:27:56.057Z,-0.56
2023-01-28T03:30:34.623Z,-0.57
2023-01-28T03:32:55.967Z,-0.57
2023-01-28T03:35:17.183Z,-0.57
2023-01-28T03:37:20.468Z,-0.48
2023-01-28T03:39:28.712Z,-0.51
2023-01-28T03:41:30.619Z,-0.52
2023-01-28T03:43:32.813Z,-0.49
2023-01-28T03:45:35.204Z,-0.50
2023-01-28T03:47:37.511Z,-0.53
2023-01-28T03:49:51.186Z,-0.52
2023-01-28T03:51:53.026Z,-0.56
2023-01-28T03:53:54.865Z,-0.50
2023-01-28T03:55:57.072Z,-0.55
2023-01-28T03:58:11.176Z,-0.60
2023-01-28T04:00:17.444Z,-0.59
2023-01-28T04:02:22.303Z,-0.59
2023-01-28T04:04:24.881Z,-0.61
2023-01-28T04:06:26.903Z,-0.62
2023-01-28T04:08:34.109Z,-0.60
2023-01-28T04:10:36.014Z,-0.56
2023-01-28T04:12:38.097Z,-0.54
2023-01-28T04:14:40.407Z,-0.52
2023-01-28T04:16:42.965Z,-0.54
2023-01-28T04:18:47.383Z,-0.57
2023-01-28T04:20:52.386Z,-0.57
2023-01-28T04:22:56.280Z,-0.56
2023-01-28T04:24:58.147Z,-0.61
2023-01-28T04:27:00.200Z,-0.67
2023-01-28T04:29:02.119Z,-0.66
2023-01-28T04:31:06.145Z,-0.64
2023-01-28T04:33:11.665Z,-0.68
2023-01-28T04:35:15.896Z,-0.63
2023-01-28T04:37:18.488Z,-0.64
2023-01-28T04:39:28.523Z,-0.62
2023-01-28T04:41:34.499Z,-0.63
2023-01-28T04:43:36.359Z,-0.61
2023-01-28T04:45:39.298Z,-0.61
2023-01-28T04:47:46.304Z,-0.62
2023-01-28T04:49:49.249Z,-0.59
2023-01-28T04:51:56.995Z,-0.61
2023-01-28T04:54:07.077Z,-0.59
2023-01-28T04:56:16.048Z,-0.64
2023-01-28T04:58:28.743Z,-0.63
2023-01-28T05:00:31.128Z,-0.62
2023-01-28T05:02:36.803Z,-0.61
2023-01-28T05:04:40.701Z,-0.59
2023-01-28T05:06:49.605Z,-0.61
2023-01-28T05:08:54.583Z,-0.61
2023-01-28T05:11:18.246Z,-0.60
2023-01-28T05:13:34.590Z,-0.56
2023-01-28T05:15:44.535Z,-0.58
2023-01-28T05:17:47.243Z,-0.55
2023-01-28T05:19:50.238Z,-0.55
2023-01-28T05:21:53.208Z,-0.57
2023-01-28T05:23:56.119Z,-0.51
2023-01-28T05:25:59.163Z,-0.52
2023-01-28T05:28:02.089Z,-0.51
2023-01-28T05:30:08.830Z,-0.52
2023-01-28T05:32:10.918Z,-0.50
2023-01-28T05:34:15.077Z,-0.51
2023-01-28T05:36:16.974Z,-0.54
2023-01-28T05:38:19.945Z,-0.52
2023-01-28T05:40:22.009Z,-0.53
2023-01-28T05:42:24.925Z,-0.50
2023-01-28T05:44:27.905Z,-0.52
2023-01-28T05:46:36.116Z,-0.57
2023-01-28T05:48:51.177Z,-0.56
2023-01-28T05:50:57.332Z,-0.52
2023-01-28T05:52:59.189Z,-0.53
2023-01-28T05:55:03.386Z,-0.53
2023-01-28T05:57:08.367Z,-0.49
2023-01-28T05:59:15.603Z,-0.53
2023-01-28T06:01:18.550Z,-0.52
2023-01-28T06:03:20.433Z,-0.58
2023-01-28T06:05:22.409Z,-0.56
2023-01-28T06:07:30.357Z,-0.59
2023-01-28T06:09:33.308Z,-0.59
2023-01-28T06:11:35.205Z,-0.57
2023-01-28T06:13:37.938Z,-0.60
2023-01-28T06:15:40.856Z,-0.57
2023-01-28T06:17:42.781Z,-0.60
2023-01-28T06:19:44.732Z,-0.59
2023-01-28T06:21:47.680Z,-0.61
2023-01-28T06:23:49.595Z,-0.62
2023-01-28T06:25:56.547Z,-0.58
2023-01-28T06:27:59.571Z,-0.60
2023-01-28T06:30:02.201Z,-0.64
2023-01-28T06:32:04.491Z,-0.63
2023-01-28T06:34:07.407Z,-0.66
2023-01-28T06:36:10.564Z,-0.66
2023-01-28T06:38:13.103Z,-0.66
2023-01-28T06:40:15.458Z,-0.66
2023-01-28T06:42:20.643Z,-0.61
2023-01-28T06:44:23.739Z,-0.66
2023-01-28T06:46:25.772Z,-0.67
2023-01-28T06:48:28.678Z,-0.61
2023-01-28T06:50:31.685Z,-0.67
2023-01-28T06:52:41.983Z,-0.68
2023-01-28T06:54:43.906Z,-0.65
2023-01-28T06:56:47.969Z,-0.67
2023-01-28T06:58:50.159Z,-0.62
2023-01-28T07:01:01.782Z,-0.64
2023-01-28T07:03:04.136Z,-0.62
2023-01-28T07:05:08.528Z,-0.60
2023-01-28T07:07:12.489Z,-0.68
2023-01-28T07:09:14.384Z,-0.71
2023-01-28T07:11:17.194Z,-0.73
2023-01-28T07:13:19.302Z,-0.69
2023-01-28T07:15:21.212Z,-0.72
2023-01-28T07:17:23.204Z,-0.62
2023-01-28T07:19:25.141Z,-0.70
2023-01-28T07:21:39.941Z,-0.70
2023-01-28T07:23:41.910Z,-0.69
2023-01-28T07:25:43.856Z,-0.74
2023-01-28T07:27:55.946Z,-0.70
2023-01-28T07:29:58.907Z,-0.71
2023-01-28T07:32:02.963Z,-0.68
2023-01-28T07:34:04.853Z,-0.63
2023-01-28T07:36:07.314Z,-0.60
2023-01-28T07:38:18.486Z,-0.59
2023-01-28T07:40:20.694Z,-0.57
2023-01-28T07:42:27.735Z,-0.55
2023-01-28T07:44:33.010Z,-0.55
2023-01-28T07:46:41.602Z,-0.54
2023-01-28T07:48:43.550Z,-0.54
2023-01-28T07:50:48.727Z,-0.54
2023-01-28T07:52:50.862Z,-0.57
2023-01-28T07:54:52.793Z,-0.50
2023-01-28T07:56:55.681Z,-0.53
2023-01-28T07:59:05.830Z,-0.51
2023-01-28T08:01:07.819Z,-0.53
2023-01-28T08:03:18.882Z,-0.53
2023-01-28T08:05:23.301Z,-0.54
2023-01-28T08:07:25.993Z,-0.51
2023-01-28T08:09:38.666Z,-0.54
2023-01-28T08:11:46.532Z,-0.51
2023-01-28T08:14:02.383Z,-0.49
2023-01-28T08:16:08.295Z,-0.50
2023-01-28T08:18:18.056Z,-0.52
2023-01-28T08:20:44.800Z,-0.55
2023-01-28T08:22:47.738Z,-0.48
2023-01-28T08:24:52.694Z,-0.53
2023-01-28T08:27:13.689Z,-0.54
2023-01-28T08:29:17.815Z,-0.53
2023-01-28T08:31:21.839Z,-0.56
2023-01-28T08:33:25.867Z,-0.52
2023-01-28T08:35:32.554Z,-0.51
2023-01-28T08:37:34.674Z,-0.54
2023-01-28T08:39:37.660Z,-0.54
2023-01-28T08:41:39.579Z,-0.56
2023-01-28T08:43:42.531Z,-0.41
2023-01-28T08:45:44.555Z,-0.40
2023-01-28T08:48:00.924Z,-0.31
2023-01-28T08:50:06.418Z,-0.34
2023-01-28T08:52:13.339Z,-0.32
2023-01-28T08:54:15.275Z,-0.37
2023-01-28T08:56:18.299Z,-0.28
2023-01-28T08:58:21.609Z,-0.20
2023-01-28T09:00:27.607Z,-0.25
2023-01-28T09:02:32.466Z,-0.30
2023-01-28T09:04:36.434Z,-0.33
2023-01-28T09:06:47.596Z,-0.30
2023-01-28T09:08:58.358Z,-0.28
2023-01-28T09:11:06.496Z,-0.29
2023-01-28T09:13:12.790Z,-0.33
2023-01-28T09:15:15.132Z,-0.31
2023-01-28T09:17:17.514Z,-0.21
2023-01-28T09:19:19.661Z,-0.26
2023-01-28T09:21:23.887Z,-0.25
2023-01-28T09:23:26.011Z,-0.27
2023-01-28T09:25:36.458Z,-0.22
2023-01-28T09:27:47.304Z,-0.28
2023-01-28T09:29:49.346Z,-0.25
2023-01-28T09:31:58.631Z,-0.25
2023-01-28T09:34:01.880Z,-0.25
2023-01-28T09:36:11.808Z,-0.27
2023-01-28T09:38:15.079Z,-0.28
2023-01-28T09:40:38.663Z,-0.24
2023-01-28T09:42:59.895Z,-0.25
2023-01-28T09:45:20.845Z,-0.31
2023-01-28T09:47:56.758Z,-0.22
2023-01-28T09:50:03.922Z,-0.26
2023-01-28T09:52:06.004Z,-0.24
2023-01-28T09:54:43.289Z,-0.17
2023-01-28T09:56:47.634Z,-0.24
2023-01-28T09:58:49.535Z,-0.15
2023-01-28T10:01:00.695Z,-0.21
2023-01-28T10:03:27.356Z,-0.20
2023-01-28T10:05:48.650Z,-0.14
2023-01-28T10:08:14.542Z,-0.18
2023-01-28T10:10:29.806Z,-0.23
2023-01-28T10:13:09.721Z,-0.20
2023-01-28T10:15:17.614Z,-0.16
2023-01-28T10:17:30.604Z,-0.20
2023-01-28T10:19:41.861Z,-0.22
2023-01-28T10:22:00.238Z,-0.22
2023-01-28T10:24:26.211Z,-0.18
2023-01-28T10:26:41.892Z,-0.14
2023-01-28T10:28:45.794Z,-0.16
2023-01-28T10:30:49.486Z,-0.11
2023-01-28T10:33:05.134Z,-0.15
2023-01-28T10:35:07.312Z,-0.15
2023-01-28T10:37:17.374Z,-0.18
2023-01-28T10:39:22.692Z,-0.14
2023-01-28T10:41:27.061Z,-0.14
2023-01-28T10:43:39.083Z,-0.16
2023-01-28T10:46:05.324Z,-0.14
2023-01-28T10:48:43.237Z,-0.07
2023-01-28T10:51:01.989Z,-0.08
2023-01-28T10:53:10.901Z,-0.06
2023-01-28T10:55:14.843Z,-0.12
2023-01-28T10:57:19.342Z,-0.11
2023-01-28T10:59:29.548Z,-0.15
2023-01-28T11:02:22.588Z,-0.22
2023-01-28T11:04:34.177Z,-0.19
2023-01-28T11:06:37.117Z,-0.19
2023-01-28T11:08:48.348Z,-0.23
2023-01-28T11:10:52.352Z,-0.27
2023-01-28T11:13:06.591Z,-0.19
2023-01-28T11:15:18.579Z,-0.15
2023-01-28T11:17:24.953Z,-0.21
2023-01-28T11:19:34.969Z,-0.29
2023-01-28T11:21:37.925Z,-0.24
2023-01-28T11:23:59.572Z,-0.20
2023-01-28T11:26:18.201Z,-0.17
2023-01-28T11:28:29.042Z,-0.26
2023-01-28T11:30:34.944Z,-0.17
2023-01-28T11:32:36.920Z,-0.28
2023-01-28T11:34:50.615Z,-0.11
2023-01-28T11:36:55.757Z,-0.11
2023-01-28T11:38:59.150Z,-0.11
2023-01-28T11:41:05.499Z,-0.13
2023-01-28T11:43:16.203Z,-0.10
2023-01-28T11:45:22.965Z,-0.11
2023-01-28T11:47:39.588Z,-0.08
2023-01-28T11:49:49.819Z,-0.10
2023-01-28T11:52:18.178Z,-0.08
2023-01-28T11:54:39.732Z,-0.05
2023-01-28T11:57:06.144Z,-0.11
2023-01-28T11:59:19.619Z,-0.01
2023-01-28T12:02:00.091Z,0.06
2023-01-28T12:04:47.117Z,-0.05
2023-01-28T12:07:26.754Z,-0.06
2023-01-28T12:09:43.954Z,-0.10
2023-01-28T12:12:14.137Z,-0.04
2023-01-28T12:14:25.363Z,-0.08
2023-01-28T12:17:00.943Z,-0.08
2023-01-28T12:19:20.452Z,-0.08
2023-01-28T12:21:33.249Z,-0.06
2023-01-28T12:24:07.832Z,-0.06
2023-01-28T12:26:37.560Z,-0.05
2023-01-28T12:28:56.896Z,-0.13
2023-01-28T12:31:35.027Z,-0.07
2023-01-28T12:34:15.658Z,-0.07
2023-01-28T12:36:30.007Z,-0.07
2023-01-28T12:38:47.772Z,-0.07
2023-01-28T12:41:16.339Z,-0.02
2023-01-28T12:44:00.850Z,-0.04
2023-01-28T12:46:11.310Z,-0.06
2023-01-28T12:48:33.084Z,-0.07
2023-01-28T12:50:45.448Z,-0.05
2023-01-28T12:53:00.882Z,-0.08
2023-01-28T12:55:18.955Z,0.02
2023-01-28T12:57:34.476Z,0.04
2023-01-28T13:00:14.390Z,0.04
2023-01-28T13:02:40.201Z,0.01
2023-01-28T13:05:15.291Z,-0.06
2023-01-28T13:07:43.312Z,-0.08
2023-01-28T13:10:06.788Z,-0.12
2023-01-28T13:12:13.792Z,-0.13
2023-01-28T13:14:16.519Z,-0.09
2023-01-28T13:16:21.288Z,-0.16
2023-01-28T13:18:44.299Z,-0.12
2023-01-28T13:20:54.159Z,-0.16
2023-01-28T13:23:04.071Z,-0.26
2023-01-28T13:25:30.122Z,-0.26
2023-01-28T13:27:32.092Z,-0.23
2023-01-28T13:29:34.928Z,-0.23
2023-01-28T13:31:41.662Z,-0.18
2023-01-28T13:33:47.790Z,-0.19
2023-01-28T13:35:55.636Z,-0.28
2023-01-28T13:38:07.282Z,-0.27
2023-01-28T13:40:15.124Z,-0.17
2023-01-28T13:42:27.681Z,-0.12
2023-01-28T13:44:33.654Z,-0.19
2023-01-28T13:46:36.598Z,-0.22
2023-01-28T13:48:59.188Z,-0.21
2023-01-28T13:51:03.330Z,-0.25
2023-01-28T13:53:18.091Z,-0.29
2023-01-28T13:55:43.064Z,-0.26
2023-01-28T13:58:05.182Z,-0.31
2023-01-28T14:00:47.222Z,-0.31
2023-01-28T14:03:14.009Z,-0.32
2023-01-28T14:05:19.206Z,-0.32
2023-01-28T14:07:58.311Z,-0.34
2023-01-28T14:10:09.227Z,-0.26
2023-01-28T14:12:11.164Z,-0.30
2023-01-28T14:14:16.021Z,-0.31
2023-01-28T14:16:41.823Z,-0.28
2023-01-28T14:18:45.991Z,-0.34
2023-01-28T14:21:02.279Z,-0.28
2023-01-28T14:23:14.798Z,-0.33
2023-01-28T14:25:38.135Z,-0.34
2023-01-28T14:27:46.100Z,-0.28
2023-01-28T14:30:07.036Z,-0.38
2023-01-28T14:32:27.285Z,-0.34
2023-01-28T14:34:33.609Z,-0.38
2023-01-28T14:36:45.342Z,-0.37
2023-01-28T14:38:51.646Z,-0.37
2023-01-28T14:41:01.168Z,-0.38
2023-01-28T14:43:06.671Z,-0.40
2023-01-28T14:45:27.259Z,-0.43
2023-01-28T14:47:55.361Z,-0.41
2023-01-28T14:50:03.405Z,-0.40
2023-01-28T14:52:42.942Z,-0.32
2023-01-28T14:54:54.092Z,-0.43
2023-01-28T14:57:09.135Z,-0.48
2023-01-28T14:59:52.847Z,-0.47
2023-01-28T15:02:05.022Z,-0.41
2023-01-28T15:04:26.136Z,-0.40
2023-01-28T15:06:37.243Z,-0.47
2023-01-28T15:08:48.767Z,-0.43
2023-01-28T15:10:57.028Z,-0.46
2023-01-28T15:13:43.800Z,-0.45
2023-01-28T15:15:52.317Z,-0.36
2023-01-28T15:17:55.051Z,-0.26
2023-01-28T15:19:58.592Z,-0.39
2023-01-28T15:22:08.330Z,-0.37
2023-01-28T15:24:17.148Z,-0.31
2023-01-28T15:26:45.750Z,-0.42
2023-01-28T15:28:55.429Z,-0.30
2023-01-28T15:30:58.296Z,-0.08
2023-01-28T15:33:11.971Z,-0.38
2023-01-28T15:35:14.525Z,-0.39
2023-01-28T15:37:18.895Z,-0.46
2023-01-28T15:39:24.034Z,-0.47
2023-01-28T15:41:34.831Z,-0.48
2023-01-28T15:43:38.606Z,-0.49
2023-01-28T15:45:49.127Z,-0.50
2023-01-28T15:48:05.840Z,-0.49
2023-01-28T15:50:23.688Z,-0.50
2023-01-28T15:52:36.592Z,-0.52
2023-01-28T15:54:45.814Z,-0.51
2023-01-28T15:56:47.794Z,-0.55
2023-01-28T15:58:52.157Z,-0.58
2023-01-28T16:01:11.178Z,-0.57
2023-01-28T16:03:22.795Z,-0.56
2023-01-28T16:05:54.013Z,-0.53
2023-01-28T16:07:57.798Z,-0.58
2023-01-28T16:10:02.655Z,-0.56
2023-01-28T16:12:08.197Z,-0.59
2023-01-28T16:14:35.432Z,-0.59
2023-01-28T16:16:38.773Z,-0.57
2023-01-28T16:18:50.947Z,-0.55
2023-01-28T16:20:54.067Z,-0.55
2023-01-28T16:22:59.393Z,-0.55
2023-01-28T16:25:02.402Z,-0.62
2023-01-28T16:27:22.778Z,-0.61
2023-01-28T16:29:26.647Z,-0.59
2023-01-28T16:31:29.858Z,-0.63
2023-01-28T16:33:32.838Z,-0.62
2023-01-28T16:35:57.118Z,-0.53
2023-01-28T16:37:56.778Z,-0.58
2023-01-28T16:40:00.396Z,-0.62
2023-01-28T16:42:04.593Z,-0.62
2023-01-28T16:44:06.872Z,-0.66
2023-01-28T16:46:19.177Z,-0.63
2023-01-28T16:48:23.239Z,-0.62
2023-01-28T16:50:25.658Z,-0.60
2023-01-28T16:52:33.749Z,-0.62
2023-01-28T16:54:48.518Z,-0.58
2023-01-28T16:56:57.014Z,-0.61
2023-01-28T16:58:59.717Z,-0.58
2023-01-28T17:01:19.042Z,-0.60
2023-01-28T17:03:25.146Z,-0.62
2023-01-28T17:05:28.382Z,-0.60
2023-01-28T17:07:37.681Z,-0.63
2023-01-28T17:09:39.587Z,-0.63
2023-01-28T17:12:02.236Z,-0.68
2023-01-28T17:14:06.853Z,-0.52
2023-01-28T17:16:10.886Z,-0.66
2023-01-28T17:18:17.034Z,-0.68
2023-01-28T17:20:20.213Z,-0.69
2023-01-28T17:22:22.663Z,-0.71
2023-01-28T17:24:32.144Z,-0.72
2023-01-28T17:26:35.680Z,-0.68
2023-01-28T17:28:37.774Z,-0.68
2023-01-28T17:30:49.005Z,-0.64
2023-01-28T17:32:58.859Z,-0.61
2023-01-28T17:35:09.431Z,-0.62
2023-01-28T17:37:11.511Z,-0.64
2023-01-28T17:39:13.719Z,-0.66
2023-01-28T17:41:18.276Z,-0.69
2023-01-28T17:43:35.043Z,-0.67
2023-01-28T17:45:37.737Z,-0.63
2023-01-28T17:47:40.479Z,-0.66
2023-01-28T17:49:44.765Z,-0.60
2023-01-28T17:51:59.779Z,-0.63
2023-01-28T17:54:02.162Z,-0.71
2023-01-28T17:56:13.997Z,-0.71
2023-01-28T17:58:16.424Z,-0.67
2023-01-28T18:00:19.820Z,-0.57
2023-01-28T18:02:23.759Z,-0.60
2023-01-28T18:04:41.390Z,-0.71
2023-01-28T18:06:49.448Z,-0.69
2023-01-28T18:08:51.944Z,-0.68
2023-01-28T18:11:03.032Z,-0.70
2023-01-28T18:13:06.227Z,-0.69
2023-01-28T18:15:11.150Z,-0.71
2023-01-28T18:17:13.765Z,-0.70
2023-01-28T18:19:17.073Z,-0.69
2023-01-28T18:21:46.574Z,-0.70
2023-01-28T18:23:57.196Z,-0.69
2023-01-28T18:26:04.486Z,-0.67
2023-01-28T18:28:08.595Z,-0.66
2023-01-28T18:30:11.796Z,-0.62
2023-01-28T18:32:15.813Z,-0.71
2023-01-28T18:34:27.501Z,-0.70
2023-01-28T18:36:31.508Z,-0.70
2023-01-28T18:38:34.289Z,-0.73
2023-01-28T18:40:36.947Z,-0.70
2023-01-28T18:42:42.087Z,-0.66
2023-01-28T18:44:46.622Z,-0.69
2023-01-28T18:46:52.536Z,-0.66
2023-01-28T18:48:59.134Z,-0.70
2023-01-28T18:51:29.605Z,-0.66
2023-01-28T18:53:35.808Z,-0.70
2023-01-28T18:55:38.975Z,-0.71
2023-01-28T18:57:46.474Z,-0.74
2023-01-28T18:59:50.898Z,-0.69
2023-01-28T19:02:02.625Z,-0.73
2023-01-28T19:04:04.896Z,-0.80
2023-01-28T19:06:11.107Z,-0.74
2023-01-28T19:08:22.013Z,-0.77
2023-01-28T19:10:32.776Z,-0.80
2023-01-28T19:12:35.613Z,-0.78
2023-01-28T19:14:40.985Z,-0.66
2023-01-28T19:16:47.147Z,-0.77
2023-01-28T19:19:01.245Z,-0.75
2023-01-28T19:21:09.258Z,-0.77
2023-01-28T19:23:15.204Z,-0.78
2023-01-28T19:25:18.521Z,-0.79
2023-01-28T19:27:32.720Z,-0.81
2023-01-28T19:29:36.340Z,-0.79
2023-01-28T19:31:40.693Z,-0.79
2023-01-28T19:33:44.582Z,-0.83
2023-01-28T19:36:04.315Z,-0.85
2023-01-28T19:38:12.688Z,-0.86
2023-01-28T19:40:17.872Z,-0.86
2023-01-28T19:42:23.632Z,-0.78
2023-01-28T19:44:38.587Z,-0.77
2023-01-28T19:46:48.655Z,-0.75
2023-01-28T19:48:57.183Z,-0.78
2023-01-28T19:51:08.349Z,-0.77
2023-01-28T19:53:19.975Z,-0.69
2023-01-28T19:55:25.189Z,-0.77
2023-01-28T19:57:37.407Z,-0.86
2023-01-28T19:59:40.484Z,-0.86
2023-01-28T20:01:45.670Z,-0.80
2023-01-28T20:04:05.688Z,-0.85
2023-01-28T20:06:16.978Z,-0.82
2023-01-28T20:08:19.789Z,-0.87
2023-01-28T20:10:29.504Z,-0.86
2023-01-28T20:12:36.681Z,-0.88
2023-01-28T20:15:22.928Z,-0.74
2023-01-28T20:17:28.765Z,-0.64
2023-01-28T20:19:31.226Z,-0.85
2023-01-28T20:21:39.627Z,-0.82
2023-01-28T20:23:49.275Z,-0.86
2023-01-28T20:25:59.042Z,-0.85
2023-01-28T20:28:05.192Z,-0.84
2023-01-28T20:30:24.441Z,-0.90
2023-01-28T20:32:33.296Z,-0.87
2023-01-28T20:34:41.801Z,-0.85
2023-01-28T20:36:53.565Z,-0.78
2023-01-28T20:39:05.328Z,-0.82
2023-01-28T20:41:29.414Z,-0.63
2023-01-28T20:43:35.650Z,-0.81
2023-01-28T20:45:44.826Z,-0.84
2023-01-28T20:47:50.562Z,-0.80
2023-01-28T20:49:53.640Z,-0.79
2023-01-28T20:52:03.327Z,-0.79
2023-01-28T20:54:18.940Z,-0.83
2023-01-28T20:56:36.499Z,-0.83
2023-01-28T20:58:39.301Z,-0.71
2023-01-28T21:00:50.577Z,-0.78
2023-01-28T21:02:55.472Z,-0.89
2023-01-28T21:05:06.827Z,-0.85
2023-01-28T21:07:13.975Z,-0.92
2023-01-28T21:09:25.200Z,-0.95
2023-01-28T21:11:37.128Z,-0.64
2023-01-28T21:13:47.512Z,-0.85
2023-01-28T21:15:57.624Z,-0.93
2023-01-28T21:18:01.867Z,-0.99
2023-01-28T21:20:11.220Z,-0.97
2023-01-28T21:22:15.739Z,-0.79
2023-01-28T21:24:31.226Z,-0.93
2023-01-28T21:26:34.865Z,-0.94
2023-01-28T21:28:44.448Z,-0.84
2023-01-28T21:30:53.659Z,-0.82
2023-01-28T21:32:57.923Z,-0.90
2023-01-28T21:35:10.228Z,-0.74
2023-01-28T21:37:22.449Z,-1.01
2023-01-28T21:39:34.102Z,-0.99
2023-01-28T21:41:50.204Z,-1.03
2023-01-28T21:44:07.323Z,-1.04
2023-01-28T21:46:12.465Z,-0.94
2023-01-28T21:48:23.382Z,-0.95
2023-01-28T21:50:52.280Z,-0.96
2023-01-28T21:52:59.320Z,-0.97
2023-01-28T21:55:02.547Z,-1.07
2023-01-28T21:57:05.547Z,-1.16
2023-01-28T21:59:33.635Z,-1.16
2023-01-28T22:01:46.269Z,-1.17
2023-01-28T22:03:57.543Z,-1.19
2023-01-28T22:06:02.590Z,-1.13
2023-01-28T22:08:17.893Z,-0.97
2023-01-28T22:10:19.842Z,-1.14
2023-01-28T22:12:28.370Z,-1.12
2023-01-28T22:14:38.188Z,-1.26
2023-01-28T22:16:41.429Z,-1.21
2023-01-28T22:18:50.429Z,-1.20
2023-01-28T22:21:04.359Z,-1.27
2023-01-28T22:23:06.276Z,-1.18
2023-01-28T22:25:15.423Z,-1.19
2023-01-28T22:27:17.313Z,-1.23
2023-01-28T22:29:23.119Z,-1.29
2023-01-28T22:31:25.182Z,-1.37
2023-01-28T22:33:28.236Z,-1.40
2023-01-28T22:35:32.767Z,-1.50
2023-01-28T22:37:38.767Z,-1.41
2023-01-28T22:39:47.857Z,-1.52
2023-01-28T22:41:49.853Z,-1.55
2023-01-28T22:44:01.914Z,-1.52
2023-01-28T22:46:08.140Z,-1.59
2023-01-28T22:48:23.054Z,-1.58
2023-01-28T22:50:27.004Z,-1.57
2023-01-28T22:52:29.004Z,-1.52
2023-01-28T22:54:33.079Z,-1.64
2023-01-28T22:56:45.200Z,-1.62
2023-01-28T22:58:47.814Z,-1.68
2023-01-28T23:00:49.825Z,-1.59
2023-01-28T23:02:53.770Z,-1.63
2023-01-28T23:05:00.758Z,-1.54
2023-01-28T23:07:02.661Z,-1.53
2023-01-28T23:09:06.628Z,-1.62
2023-01-28T23:11:15.455Z,-1.69
2023-01-28T23:13:18.721Z,-1.69
2023-01-28T23:15:41.717Z,-1.66
2023-01-28T23:18:35.736Z,-1.74
2023-01-28T23:21:17.716Z,-1.75
2023-01-28T23:23:38.368Z,-1.75
2023-01-28T23:25:58.773Z,-1.79
2023-01-28T23:28:01.763Z,-1.81
2023-01-28T23:30:11.855Z,-1.78
2023-01-28T23:32:15.969Z,-1.79
2023-01-28T23:34:18.482Z,-1.79
2023-01-28T23:36:20.367Z,-1.79
2023-01-28T23:38:42.547Z,-1.76
2023-01-28T23:40:46.541Z,-1.84
2023-01-28T23:42:50.885Z,-1.80
2023-01-28T23:44:56.995Z,-1.78
2023-01-28T23:47:00.126Z,-1.80
2023-01-28T23:49:02.208Z,-1.88
2023-01-28T23:51:07.021Z,-1.90
2023-01-28T23:53:13.367Z,-1.91
2023-01-28T23:55:16.154Z,-1.90
2023-01-28T23:57:21.075Z,-1.91
2023-01-28T23:59:23.072Z,-1.92
